Create Tblcommutelog Verified Points Advance Search
| # | Trip ID | Id Commuter | Trip Date | Trip Num | Current Lat | Current Lng | Delta Distance | Current Time | Activity | Activity Confidence | Current Speed | |
|---|---|---|---|---|---|---|---|---|---|---|---|---|
| 69521 | 250725_753953_16495306_0820 | 753953 | (not set) | (not set) | 38.87980405209 | -77.113305317996 | 3.5593 | 2025-07-25 08:39:37 | in_vehicle | 100 | 2.8431696871619 | |
| 69522 | 250725_780972_16500693_0831 | 780972 | (not set) | (not set) | 38.886185069345 | -77.0215237228 | 0.5679 | 2025-07-25 08:39:37 | in_vehicle | 100 | -0.44703925898772 | |
| 69523 | 250725_780972_16500693_0831 | 780972 | (not set) | (not set) | 38.886185069345 | -77.0215237228 | 0.5679 | 2025-07-25 08:39:37 | in_vehicle | 100 | -0.44703925898772 | |
| 69524 | 250725_780972_16500693_0831 | 780972 | (not set) | (not set) | 38.886205035506 | -77.021543823928 | 2.6557 | 2025-07-25 08:39:39 | in_vehicle | 100 | -0.44703925898772 | |
| 69525 | 250725_787208_16514985_0832 | 787208 | (not set) | (not set) | 39.268765183333 | -76.6605049 | 3.7595 | 2025-07-25 08:39:39 | in_vehicle | 100 | 15.592729353492 | |
| 69526 | 250725_727233_6431224_0837 | 727233 | (not set) | (not set) | 39.2092248 | -76.9388968 | 0.8809 | 2025-07-25 08:39:40 | in_vehicle | 100 | 4.7564977156294 | |
| 69527 | 250725_780933_16509153_0758 | 780933 | (not set) | (not set) | 38.968309019031 | -76.85264186458 | 27.1776 | 2025-07-25 08:39:44 | in_vehicle | 100 | 10.581419260239 | |
| 69528 | 250725_785040_16472741_0822 | 785040 | (not set) | (not set) | 38.97554752381 | -76.928021160122 | 3.1003 | 2025-07-25 08:39:46 | on_foot | 100 | 0.71973320697024 | |
| 69529 | 250725_785040_16472741_0822 | 785040 | (not set) | (not set) | 38.97554752381 | -76.928021160122 | 3.1003 | 2025-07-25 08:39:46 | on_foot | 100 | 0.71973320697024 | |
| 69530 | 250725_769334_16453873_0835 | 769334 | (not set) | (not set) | 38.8974787 | -77.0036335 | 0.1862 | 2025-07-25 08:39:48 | walking | 100 | 0.5900918218638 | |
| 69531 | 250725_787677_16515188_0807 | 787677 | (not set) | (not set) | 39.084297362096 | -76.815897715242 | 21.1002 | 2025-07-25 08:39:48 | unknown | 100 | 6.6251218181981 | |
| 69532 | 250725_787208_16514985_0832 | 787208 | (not set) | (not set) | 39.2669774 | -76.6646893 | 4.0156 | 2025-07-25 08:39:51 | in_vehicle | 100 | 15.615081316441 | |
| 69533 | 250725_753800_6439769_0820 | 753800 | (not set) | (not set) | 38.904146121847 | -77.003547740706 | 3.2272 | 2025-07-25 08:39:53 | on_foot | 100 | 2.2083739393994 | |
| 69534 | 250725_751043_16497756_0824 | 751043 | (not set) | (not set) | 38.91841366345 | -76.99785105669 | 2.9169 | 2025-07-25 08:39:53 | on_bicycle | 100 | 3.8847711606033 | |
| 69535 | 250725_771958_16496658_0827 | 771958 | (not set) | (not set) | 38.822753141174 | -77.049955406185 | 0.4525 | 2025-07-25 08:39:53 | in_vehicle | 100 | 2.5078902429211 | |
| 69536 | 250725_770680_16457490_0717 | 770680 | (not set) | (not set) | 38.8739395 | -77.236125533333 | 0.5427 | 2025-07-25 08:39:55 | in_vehicle | 100 | 0 | |
| 69537 | 250725_770680_16457490_0717 | 770680 | (not set) | (not set) | 38.8739395 | -77.236125533333 | 0.5427 | 2025-07-25 08:39:55 | in_vehicle | 100 | 0 | |
| 69538 | 250725_780933_16509153_0758 | 780933 | (not set) | (not set) | 38.966471762102 | -76.855328992389 | 27.37 | 2025-07-25 08:39:58 | in_vehicle | 100 | 8.1897592246551 | |
| 69539 | 250725_771304_6423049_0757 | 771304 | (not set) | (not set) | 38.897360032287 | -77.048507984342 | 4.1949 | 2025-07-25 08:40:00 | unknown | 100 | 4.3988663084392 | |
| 69540 | 250725_787677_16515188_0807 | 787677 | (not set) | (not set) | 39.083009167119 | -76.817593114175 | 21.2275 | 2025-07-25 08:40:00 | unknown | 100 | 7.7069568249484 |